Airfield :
LOGIN :

Register | Disclaimer

   EN    FR    IT 

 










Legend :    VFR   Marginal VFR   IFR   Intensive IFR   Very Intensive IFR
Visi :
Ceiling :
>= 8 km
>= 3000ft
5 to 8 km
1000 to 3000 ft
1500m to 5 km
500 to 1000 ft
800 to 1500m
200 to 500 ft
< 800m
< 200 ft
Symbols :   Thunderstorms  Fog  Heavy snow  Heavy precipitations  Wind > 20 kt
SIGMETs :     Misc.  Thunderstorms  Icing  Turbulence  Mountain Waves  Volcanic Ashes






- Airport Elevation : 288 ft
- IATA code : BZZ


EGVN - RAF Brize Norton

CURRENT METAR :
  • 181220Z 18010KT 9999 FEW036 BKN250 20/10 Q1019 NOSIG

EXPIRED METARs :
  • 181150Z 17009KT 9999 FEW034 BKN250 18/09 Q1020 NOSIG
  • 181120Z 17008KT 9999 FEW034 BKN250 19/11 Q1020 NOSIG RMK BLU BLU
  • 181050Z 18008KT 9999 FEW030 BKN250 18/11 Q1020 NOSIG RMK BLU BLU
  • 181020Z 20006KT 9999 FEW025 BKN250 17/10 Q1020 NOSIG RMK BLU BLU
  • 180950Z 17007KT 9999 FEW024 BKN250 17/11 Q1020 NOSIG

TAF TAF EGVN
Valid from the 18 at 12:00 until the 19 at 12:00 UTC


181040Z 1812/1912 18012KT 9999 FEW040
TEMPO 1818/1824 7000 SHRA
PROB40
TEMPO 1820/1823 VRB15G25KT 2500 +SHRA BKN022 BKN045CB
PROB40 1823/1906 4000 BR BKN006
PROB30 1903/1906 BKN004
PROB30
TEMPO 1906/1909 SCT008



MET'MAP, your aeronautical weather chart ! - Copyright ORBIFLY December 2007 - Disclaimer

ORBIFLY MET'MAP TEAM :

Programming & Development : Alexandra Zaïnal
Original concept : Baudouin d'Aumeries
Technical & hardware support : Manuel Goepfert
Assistance : Marc-Olivier Méhu

Contact : metmap@orbifly.com




SOURCES & CREDITS :

   NOAA